Time;durP1;ratioP1;P1;durP2;ratioP2;P2;SDS_P1;SDS_P2;PMS_P1;PMS_P2;Temp;Humidity;BMP_temperature;BMP_pressure;BME280_temperature;BME280_humidity;BME280_pressure;Samples;Min_cycle;Max_cycle;Signal;HPM_P1;HPM_P2
2021/08/12 00:01:23;;;;;;;10.90;7.35;;;15.70;99.90;;;;;;4906842;29;20517;-93
2021/08/12 00:03:49;;;;;;;11.05;7.32;;;15.70;99.90;;;;;;4895912;29;20189;-92
2021/08/12 00:06:15;;;;;;;8.85;6.65;;;15.70;99.90;;;;;;4892459;29;20188;-92
2021/08/12 00:08:41;;;;;;;10.77;6.25;;;15.70;99.90;;;;;;4920753;29;20267;-91
2021/08/12 00:11:07;;;;;;;11.00;6.50;;;15.70;99.90;;;;;;4900843;29;20287;-91
2021/08/12 00:13:33;;;;;;;9.55;6.50;;;15.60;99.90;;;;;;4918053;29;20239;-92
2021/08/12 00:16:00;;;;;;;7.45;6.03;;;15.60;99.90;;;;;;4900746;29;20177;-92
2021/08/12 00:18:26;;;;;;;9.55;7.13;;;15.50;99.90;;;;;;4884662;29;20195;-91
2021/08/12 00:20:52;;;;;;;9.93;7.45;;;15.50;99.90;;;;;;4917956;29;20653;-91
2021/08/12 00:23:18;;;;;;;12.73;7.68;;;15.40;99.90;;;;;;4917479;29;20295;-92
2021/08/12 00:25:45;;;;;;;10.43;7.28;;;15.40;99.90;;;;;;4918138;29;20211;-92
2021/08/12 00:28:12;;;;;;;12.02;7.10;;;15.30;99.90;;;;;;4916933;29;20701;-91
2021/08/12 00:30:38;;;;;;;13.43;8.07;;;15.30;99.90;;;;;;4900642;29;20177;-93
2021/08/12 00:33:03;;;;;;;12.35;7.72;;;15.30;99.90;;;;;;4918013;29;20192;-92
2021/08/12 00:35:29;;;;;;;11.13;7.55;;;15.20;99.90;;;;;;4917443;29;20188;-92
2021/08/12 00:37:54;;;;;;;11.55;8.43;;;15.20;99.90;;;;;;4885270;29;20184;-92
2021/08/12 00:40:21;;;;;;;9.55;6.70;;;15.10;99.90;;;;;;4884744;29;20212;-93
2021/08/12 00:42:46;;;;;;;9.45;7.05;;;15.10;99.90;;;;;;4917459;29;20217;-92
2021/08/12 00:45:12;;;;;;;9.73;7.43;;;15.10;99.90;;;;;;4900196;29;20196;-91
2021/08/12 00:47:38;;;;;;;11.70;7.25;;;15.10;99.90;;;;;;4917474;29;20232;-91
2021/08/12 00:50:04;;;;;;;11.13;7.25;;;15.00;99.90;;;;;;4900401;29;20191;-91
2021/08/12 00:52:31;;;;;;;11.52;7.13;;;15.00;99.90;;;;;;4916993;29;20331;-93
2021/08/12 00:54:58;;;;;;;10.52;6.85;;;15.00;99.90;;;;;;4900439;29;20176;-92
2021/08/12 00:57:23;;;;;;;11.10;7.55;;;15.00;99.90;;;;;;4916754;29;20271;-92
2021/08/12 00:59:49;;;;;;;11.00;7.18;;;14.90;99.90;;;;;;4900244;29;20276;-91
2021/08/12 01:02:15;;;;;;;9.95;6.70;;;;;;;;;;4916832;29;20207;-92
2021/08/12 01:04:49;;;;;;;7.65;6.18;;;14.90;99.90;;;;;;4916959;29;20740;-92
2021/08/12 01:07:52;;;;;;;10.63;6.82;;;14.90;99.90;;;;;;4900657;29;20195;-91
2021/08/12 01:10:19;;;;;;;8.02;6.15;;;14.90;99.90;;;;;;4880342;29;20587;-93
2021/08/12 01:13:00;;;;;;;12.02;6.68;;;14.90;99.90;;;;;;4921132;29;20383;-92
2021/08/12 01:15:34;;;;;;;10.88;6.95;;;14.90;99.90;;;;;;4903729;29;20192;-92
2021/08/12 01:18:08;;;;;;;10.90;6.90;;;14.90;99.90;;;;;;4904191;29;20180;-92
2021/08/12 01:20:54;;;;;;;11.52;6.35;;;14.90;99.90;;;;;;4903565;29;20184;-90
2021/08/12 01:23:22;;;;;;;9.25;6.55;;;14.90;99.90;;;;;;4903453;29;20216;-90
2021/08/12 01:25:51;;;;;;;12.18;7.05;;;14.90;99.90;;;;;;4903674;29;20188;-90
2021/08/12 01:28:30;;;;;;;11.55;7.35;;;14.80;99.90;;;;;;4903570;29;20244;-89
2021/08/12 01:31:25;;;;;;;13.05;7.43;;;14.90;99.90;;;;;;4920529;29;20178;-92
2021/08/12 01:33:57;;;;;;;8.13;7.07;;;14.80;99.90;;;;;;4903592;29;20600;-92
2021/08/12 01:36:24;;;;;;;15.90;8.10;;;14.80;99.90;;;;;;4920545;29;20187;-92
2021/08/12 01:38:52;;;;;;;10.88;6.85;;;14.80;99.90;;;;;;4887914;29;20193;-92
2021/08/12 01:41:19;;;;;;;13.17;7.70;;;14.80;99.90;;;;;;4903463;29;20208;-90
2021/08/12 01:43:45;;;;;;;11.93;7.55;;;14.80;99.90;;;;;;4920343;29;20276;-92
2021/08/12 01:46:11;;;;;;;9.15;7.40;;;14.80;99.90;;;;;;4903656;29;20228;-93
2021/08/12 01:48:37;;;;;;;9.45;6.53;;;14.90;99.90;;;;;;4903515;29;20188;-93
2021/08/12 01:51:04;;;;;;;9.75;7.10;;;14.90;99.90;;;;;;4903623;29;20192;-93
2021/08/12 01:53:31;;;;;;;11.55;6.82;;;14.90;99.90;;;;;;4902907;29;20240;-92
2021/08/12 01:55:58;;;;;;;10.23;6.60;;;14.90;99.90;;;;;;4903558;29;20214;-93
2021/08/12 01:58:26;;;;;;;13.65;6.97;;;14.90;99.90;;;;;;4919713;29;20183;-93
2021/08/12 02:00:54;;;;;;;15.13;7.60;;;14.80;99.90;;;;;;4903860;29;20263;-92
2021/08/12 02:03:21;;;;;;;10.23;7.60;;;14.90;99.90;;;;;;4903306;29;20208;-92
2021/08/12 02:05:49;;;;;;;8.93;6.70;;;14.80;99.90;;;;;;4920064;29;20191;-92
2021/08/12 02:08:21;;;;;;;9.65;6.88;;;14.80;99.90;;;;;;4919879;29;20177;-92
2021/08/12 02:10:51;;;;;;;10.73;7.43;;;14.70;99.90;;;;;;4919635;29;20191;-92
2021/08/12 02:13:16;;;;;;;8.80;6.85;;;14.70;99.90;;;;;;4902983;29;20180;-92
2021/08/12 02:15:43;;;;;;;11.23;7.10;;;14.80;99.90;;;;;;4902745;29;20188;-92
2021/08/12 02:18:09;;;;;;;8.38;6.70;;;14.80;99.90;;;;;;4919855;29;20176;-92
2021/08/12 02:20:35;;;;;;;11.35;8.07;;;14.80;99.90;;;;;;4919220;29;20187;-93
2021/08/12 02:23:07;;;;;;;12.20;7.65;;;14.80;99.90;;;;;;4920389;29;20259;-94
2021/08/12 02:25:54;;;;;;;8.98;7.35;;;14.70;99.90;;;;;;4903173;29;20192;-93
2021/08/12 02:28:21;;;;;;;11.20;7.75;;;14.70;99.90;;;;;;4919963;29;20169;-93
2021/08/12 02:30:51;;;;;;;13.15;9.15;;;14.70;99.90;;;;;;4902950;29;20172;-93
2021/08/12 02:33:20;;;;;;;12.15;8.13;;;14.70;99.90;;;;;;4902575;29;20247;-93
2021/08/12 02:35:47;;;;;;;15.63;8.98;;;14.70;99.90;;;;;;4920089;29;20187;-94
2021/08/12 02:38:14;;;;;;;11.63;8.98;;;14.60;99.90;;;;;;4887568;29;20188;-93
2021/08/12 02:40:43;;;;;;;12.85;8.38;;;14.60;99.90;;;;;;4919342;29;20653;-93
2021/08/12 02:43:10;;;;;;;13.18;8.88;;;14.50;99.90;;;;;;4902798;29;20581;-94
2021/08/12 02:45:37;;;;;;;12.25;8.68;;;14.50;99.90;;;;;;4887606;29;20184;-93
2021/08/12 02:48:07;;;;;;;10.90;8.75;;;14.50;99.90;;;;;;4919941;29;20207;-92
2021/08/12 02:50:35;;;;;;;13.85;8.70;;;14.40;99.90;;;;;;4902647;29;20263;-92
2021/08/12 02:53:01;;;;;;;13.88;9.50;;;14.40;99.90;;;;;;4919788;29;20189;-91
2021/08/12 02:55:29;;;;;;;13.00;8.88;;;14.40;99.90;;;;;;4919573;29;20236;-90
2021/08/12 02:57:54;;;;;;;13.05;9.40;;;14.40;99.90;;;;;;4920029;29;20184;-92
2021/08/12 03:00:21;;;;;;;13.27;9.25;;;14.50;99.90;;;;;;4905062;29;20180;-91
2021/08/12 03:02:48;;;;;;;14.52;9.75;;;14.50;99.90;;;;;;4942554;29;20204;-90
2021/08/12 03:05:14;;;;;;;14.07;10.10;;;14.50;99.90;;;;;;4942955;29;20169;-90
2021/08/12 03:07:43;;;;;;;16.88;10.57;;;14.50;99.90;;;;;;4910868;29;20165;-89
2021/08/12 03:10:11;;;;;;;14.73;10.23;;;14.60;99.90;;;;;;4926480;29;20241;-90
2021/08/12 03:12:39;;;;;;;18.30;10.65;;;14.60;99.90;;;;;;4910672;29;20176;-88
2021/08/12 03:15:06;;;;;;;15.68;10.93;;;14.60;99.90;;;;;;4942686;29;20196;-88
2021/08/12 03:17:32;;;;;;;17.13;10.95;;;14.80;99.90;;;;;;4942558;29;20207;-88
2021/08/12 03:19:57;;;;;;;17.17;11.70;;;14.60;99.90;;;;;;4910532;29;20236;-88
2021/08/12 03:22:24;;;;;;;21.40;10.25;;;14.70;99.90;;;;;;4910477;29;20232;-88
2021/08/12 03:24:53;;;;;;;13.57;10.48;;;14.70;99.90;;;;;;4925879;29;20207;-88
2021/08/12 03:27:19;;;;;;;16.33;9.77;;;14.70;99.90;;;;;;4942214;29;20176;-90
2021/08/12 03:29:46;;;;;;;13.68;9.90;;;14.70;99.90;;;;;;4941665;29;20223;-88
2021/08/12 03:32:13;;;;;;;10.63;8.15;;;14.70;99.90;;;;;;4925121;29;20236;-88
2021/08/12 03:34:39;;;;;;;15.95;7.70;;;14.70;99.90;;;;;;4941712;29;20216;-88
2021/08/12 03:37:05;;;;;;;10.43;7.95;;;14.70;99.90;;;;;;4920739;29;20196;-89
2021/08/12 03:39:31;;;;;;;14.05;8.38;;;14.70;99.90;;;;;;4888031;29;20192;-91
2021/08/12 03:41:58;;;;;;;10.40;8.00;;;14.70;99.90;;;;;;4919369;29;20232;-89
2021/08/12 03:44:24;;;;;;;16.52;8.23;;;14.70;99.90;;;;;;4920157;29;20228;-89
2021/08/12 03:46:50;;;;;;;12.38;7.72;;;14.80;99.90;;;;;;4902052;29;20617;-90
2021/08/12 03:49:16;;;;;;;11.23;7.78;;;14.70;99.90;;;;;;4902590;29;20223;-91
2021/08/12 03:51:42;;;;;;;11.95;7.50;;;14.80;99.90;;;;;;4887296;29;20191;-91
2021/08/12 03:54:08;;;;;;;13.10;8.50;;;14.80;99.90;;;;;;4920694;29;20604;-92
2021/08/12 03:56:34;;;;;;;12.02;6.80;;;14.80;99.90;;;;;;4919221;29;20621;-90
2021/08/12 03:58:59;;;;;;;9.60;7.03;;;14.80;99.90;;;;;;4902436;29;20189;-90
2021/08/12 04:01:25;;;;;;;10.55;6.82;;;14.80;99.90;;;;;;4919993;29;20669;-91
2021/08/12 04:03:51;;;;;;;10.90;6.80;;;14.80;99.90;;;;;;4919062;29;20637;-91
2021/08/12 04:06:17;;;;;;;9.90;6.82;;;14.90;99.90;;;;;;4903650;29;20185;-90
2021/08/12 04:08:43;;;;;;;12.80;6.97;;;14.90;99.90;;;;;;4919228;29;20176;-91
2021/08/12 04:11:09;;;;;;;11.90;7.53;;;14.90;99.90;;;;;;4919301;29;20668;-91
2021/08/12 04:13:34;;;;;;;12.55;7.22;;;15.00;99.90;;;;;;4918326;29;20185;-91
2021/08/12 04:16:00;;;;;;;11.75;6.93;;;;;;;;;;4917500;29;20626;-91
2021/08/12 04:18:26;;;;;;;9.20;6.65;;;15.10;99.90;;;;;;4918068;29;20180;-91
2021/08/12 04:20:52;;;;;;;13.52;7.80;;;15.10;99.90;;;;;;4920210;29;20183;-91
2021/08/12 04:23:18;;;;;;;8.30;7.03;;;15.20;99.90;;;;;;4905569;29;20216;-91
2021/08/12 04:25:45;;;;;;;11.95;7.53;;;15.30;99.90;;;;;;4921097;29;20195;-90
2021/08/12 04:28:11;;;;;;;10.32;6.88;;;15.40;99.90;;;;;;4900524;29;20599;-91
2021/08/12 04:30:37;;;;;;;9.93;7.30;;;15.40;99.90;;;;;;4900730;29;20185;-91
2021/08/12 04:33:03;;;;;;;13.43;7.32;;;;;;;;;;4886917;29;20192;-91
2021/08/12 04:35:29;;;;;;;13.30;7.40;;;15.60;99.90;;;;;;4903318;29;20256;-90
2021/08/12 04:37:54;;;;;;;13.18;7.85;;;15.60;99.90;;;;;;4922802;29;20208;-93
2021/08/12 04:40:21;;;;;;;12.55;7.50;;;15.60;99.90;;;;;;4903398;29;20537;-90
2021/08/12 04:42:49;;;;;;;9.80;7.47;;;15.70;99.90;;;;;;4916699;29;20208;-92
2021/08/12 04:45:16;;;;;;;10.57;6.80;;;15.80;99.90;;;;;;4917303;29;20185;-90
2021/08/12 04:47:42;;;;;;;10.20;7.57;;;15.80;99.90;;;;;;4917280;29;20179;-90
2021/08/12 04:50:09;;;;;;;10.50;7.25;;;15.30;99.90;;;;;;4917338;29;20311;-91
2021/08/12 04:52:35;;;;;;;12.00;7.00;;;15.90;99.90;;;;;;4893324;29;20192;-92
2021/08/12 04:55:01;;;;;;;11.15;6.95;;;16.00;99.90;;;;;;4877337;29;20278;-92
2021/08/12 04:57:27;;;;;;;14.45;7.15;;;16.00;99.90;;;;;;4906652;29;20769;-93
2021/08/12 04:59:53;;;;;;;11.65;6.40;;;16.10;99.90;;;;;;4910824;29;20208;-96
2021/08/12 05:02:18;;;;;;;8.73;7.13;;;16.10;99.90;;;;;;4888377;29;20219;-92
2021/08/12 05:04:44;;;;;;;12.00;7.53;;;16.20;99.90;;;;;;4919097;29;20188;-93
2021/08/12 05:07:09;;;;;;;11.13;7.95;;;16.20;99.90;;;;;;4919179;29;20179;-92
2021/08/12 05:09:36;;;;;;;12.57;8.27;;;16.30;99.90;;;;;;4900421;29;20561;-93
2021/08/12 05:12:02;;;;;;;13.57;7.15;;;16.40;99.90;;;;;;4923069;29;20192;-93
2021/08/12 05:14:28;;;;;;;13.45;7.50;;;16.40;99.90;;;;;;4923333;29;20694;-93
2021/08/12 05:16:53;;;;;;;17.15;7.07;;;16.40;99.90;;;;;;4891917;29;20223;-92
2021/08/12 05:19:19;;;;;;;8.80;6.95;;;;;;;;;;4891552;29;20181;-93
2021/08/12 05:21:45;;;;;;;8.10;6.18;;;;;;;;;;4922625;29;20212;-92
2021/08/12 05:24:11;;;;;;;8.88;5.95;;;16.60;99.90;;;;;;4902407;29;20243;-92
2021/08/12 05:26:37;;;;;;;12.82;7.20;;;16.70;99.90;;;;;;4917626;29;20176;-93
2021/08/12 05:29:03;;;;;;;10.80;6.55;;;16.70;99.90;;;;;;4885425;29;20311;-94
2021/08/12 05:31:29;;;;;;;7.97;5.82;;;16.70;99.90;;;;;;4910943;29;20191;-94
2021/08/12 05:33:55;;;;;;;7.28;5.57;;;16.80;99.90;;;;;;4902164;29;20200;-91
2021/08/12 05:36:20;;;;;;;9.65;7.00;;;16.80;99.90;;;;;;4931920;29;20276;-93
2021/08/12 05:38:46;;;;;;;11.73;5.78;;;17.00;99.90;;;;;;4910367;29;20188;-90
2021/08/12 05:41:13;;;;;;;9.15;5.50;;;17.00;99.90;;;;;;4904677;29;20259;-92
2021/08/12 05:43:38;;;;;;;9.05;5.50;;;17.10;99.90;;;;;;4887818;29;20222;-94
2021/08/12 05:46:04;;;;;;;8.85;6.00;;;17.10;99.90;;;;;;4900599;29;20184;-93
2021/08/12 05:48:30;;;;;;;8.07;5.63;;;17.20;99.90;;;;;;4917433;29;20272;-95
2021/08/12 05:50:55;;;;;;;9.45;5.85;;;17.30;99.90;;;;;;4922247;29;20649;-93
2021/08/12 05:53:21;;;;;;;8.77;5.70;;;17.30;99.90;;;;;;4923245;29;20861;-94
2021/08/12 05:55:48;;;;;;;9.98;5.70;;;17.40;99.90;;;;;;4924018;29;20216;-95
2021/08/12 05:58:14;;;;;;;7.95;5.35;;;17.30;99.90;;;;;;4904661;29;20188;-94
2021/08/12 06:00:40;;;;;;;7.65;5.45;;;;;;;;;;4921656;29;20169;-94
2021/08/12 06:03:07;;;;;;;7.28;5.68;;;17.50;99.90;;;;;;4920463;29;20224;-94
2021/08/12 06:05:33;;;;;;;10.30;6.38;;;17.50;99.90;;;;;;4924938;29;20195;-93
2021/08/12 06:08:04;;;;;;;11.52;7.28;;;17.60;99.90;;;;;;4912000;29;20177;-93
2021/08/12 06:10:30;;;;;;;8.55;5.93;;;17.60;99.90;;;;;;4929105;29;20191;-93
2021/08/12 06:12:56;;;;;;;10.35;6.03;;;17.70;99.90;;;;;;4930589;29;20199;-94
2021/08/12 06:15:27;;;;;;;10.60;5.07;;;17.80;99.90;;;;;;4928744;29;20181;-94
2021/08/12 06:17:53;;;;;;;7.20;4.85;;;17.90;99.90;;;;;;4912506;29;20188;-93
2021/08/12 06:20:20;;;;;;;5.90;4.32;;;17.70;99.90;;;;;;4930230;29;20219;-93
2021/08/12 06:22:52;;;;;;;6.13;4.32;;;17.80;99.90;;;;;;4912289;29;20271;-95
2021/08/12 06:25:18;;;;;;;9.32;4.72;;;17.70;99.90;;;;;;4937052;29;20671;-96
2021/08/12 06:27:44;;;;;;;6.18;4.18;;;;;;;;;;4939696;29;20188;-94
2021/08/12 06:30:11;;;;;;;10.02;4.60;;;18.60;99.90;;;;;;4922978;29;20239;-93
2021/08/12 06:32:38;;;;;;;9.15;4.07;;;18.20;99.90;;;;;;4939015;29;20263;-94
2021/08/12 06:35:06;;;;;;;5.43;4.10;;;18.60;99.90;;;;;;4938726;29;20200;-94
2021/08/12 06:37:43;;;;;;;6.43;4.28;;;18.50;99.90;;;;;;4921470;29;20183;-93
2021/08/12 06:40:10;;;;;;;10.20;5.20;;;18.90;99.90;;;;;;4909356;29;20189;-94
2021/08/12 06:42:36;;;;;;;7.57;3.53;;;18.80;99.90;;;;;;4920107;29;20275;-93
2021/08/12 06:45:02;;;;;;;8.63;5.55;;;;;;;;;;4922338;29;20192;-92
2021/08/12 06:47:28;;;;;;;5.43;3.45;;;;;;;;;;4892299;29;20192;-91
2021/08/12 06:49:54;;;;;;;7.90;4.47;;;;;;;;;;4924022;29;20184;-92
2021/08/12 06:52:20;;;;;;;7.10;3.75;;;;;;;;;;4911940;29;20262;-92
2021/08/12 06:54:46;;;;;;;5.72;3.17;;;;;;;;;;4911023;29;20251;-92
2021/08/12 06:57:13;;;;;;;6.93;3.47;;;;;;;;;;4910605;29;20609;-92
2021/08/12 06:59:39;;;;;;;5.22;4.03;;;;;;;;;;4925538;29;20260;-91
2021/08/12 07:02:05;;;;;;;5.22;3.38;;;;;;;;;;4913620;29;20213;-92
2021/08/12 07:04:31;;;;;;;4.82;3.00;;;;;;;;;;4927119;29;20183;-92
2021/08/12 07:06:57;;;;;;;7.22;3.50;;;;;;;;;;4891412;29;20284;-91
2021/08/12 07:09:23;;;;;;;5.28;3.45;;;;;;;;;;4927611;29;20645;-92
2021/08/12 07:11:52;;;;;;;5.20;3.42;;;;;;;;;;4927549;29;20640;-92
2021/08/12 07:14:18;;;;;;;7.18;3.70;;;19.10;99.90;;;;;;4928729;29;20176;-92
2021/08/12 07:16:44;;;;;;;7.25;4.22;;;;;;;;;;4906857;29;20185;-93
2021/08/12 07:19:10;;;;;;;6.95;4.07;;;;;;;;;;4929002;29;20207;-94
2021/08/12 07:21:36;;;;;;;7.72;4.03;;;;;;;;;;4903176;29;20786;-93
2021/08/12 07:24:01;;;;;;;8.10;5.45;;;19.70;99.90;;;;;;4920713;29;20203;-93
2021/08/12 07:26:27;;;;;;;6.55;3.85;;;;;;;;;;4943735;29;20184;-93
2021/08/12 07:28:53;;;;;;;5.15;3.88;;;;;;;;;;4905113;29;20303;-94
2021/08/12 07:31:19;;;;;;;7.93;4.40;;;;;;;;;;4903218;29;20322;-92
2021/08/12 07:33:45;;;;;;;4.15;3.20;;;;;;;;;;4921190;29;20195;-91
2021/08/12 07:36:11;;;;;;;5.68;3.40;;;19.30;99.90;;;;;;4905961;29;20269;-91
2021/08/12 07:38:37;;;;;;;5.25;3.30;;;;;;;;;;4936144;29;20191;-91
2021/08/12 07:41:03;;;;;;;7.38;3.22;;;19.40;99.90;;;;;;4935730;29;20753;-93
2021/08/12 07:43:29;;;;;;;5.30;2.90;;;19.40;99.90;;;;;;4936055;29;20216;-93
2021/08/12 07:45:55;;;;;;;5.43;3.22;;;19.60;99.90;;;;;;4938016;29;20259;-94
2021/08/12 07:48:21;;;;;;;12.20;3.25;;;19.90;99.90;;;;;;4920576;29;20191;-93
2021/08/12 07:50:48;;;;;;;10.20;3.45;;;20.20;99.90;;;;;;4904993;29;20262;-94
2021/08/12 07:53:14;;;;;;;5.78;3.38;;;20.20;99.90;;;;;;4937448;29;20187;-90
2021/08/12 07:55:40;;;;;;;6.45;2.92;;;;;;;;;;4938142;29;20259;-93
2021/08/12 07:58:06;;;;;;;4.28;3.03;;;;;;;;;;4937619;29;20579;-94
2021/08/12 08:00:32;;;;;;;9.27;3.88;;;;;;;;;;4920436;29;20192;-94
2021/08/12 08:02:58;;;;;;;9.23;3.40;;;19.90;99.90;;;;;;4937403;29;20210;-93
2021/08/12 08:05:24;;;;;;;4.78;3.10;;;19.80;99.90;;;;;;4920776;29;20188;-92
2021/08/12 08:07:53;;;;;;;5.82;3.70;;;19.60;99.90;;;;;;4939702;29;20180;-93
2021/08/12 08:10:20;;;;;;;5.93;3.25;;;20.00;99.90;;;;;;4953841;29;20176;-93
2021/08/12 08:12:46;;;;;;;6.20;3.83;;;;;;;;;;4937162;29;20191;-93
2021/08/12 08:15:14;;;;;;;7.53;3.35;;;20.10;99.90;;;;;;4920622;29;20195;-91
2021/08/12 08:17:40;;;;;;;4.90;2.83;;;20.20;99.90;;;;;;4920981;29;20243;-93
2021/08/12 08:20:07;;;;;;;5.55;3.03;;;20.20;99.90;;;;;;4920880;29;20188;-92
2021/08/12 08:22:34;;;;;;;5.57;3.00;;;20.40;99.90;;;;;;4936717;29;20346;-92
2021/08/12 08:25:00;;;;;;;6.18;3.08;;;20.40;99.90;;;;;;4936174;29;20180;-91
2021/08/12 08:27:26;;;;;;;6.47;4.60;;;20.40;99.90;;;;;;4953446;29;20346;-89
2021/08/12 08:29:52;;;;;;;7.43;2.60;;;20.50;99.90;;;;;;4940236;29;20258;-91
2021/08/12 08:32:18;;;;;;;6.07;3.10;;;20.50;99.90;;;;;;4904088;29;20258;-90
2021/08/12 08:34:46;;;;;;;4.70;2.58;;;20.60;99.90;;;;;;4938176;29;20182;-93
2021/08/12 08:37:12;;;;;;;4.63;2.55;;;20.60;99.90;;;;;;4921679;29;20211;-93
2021/08/12 08:39:38;;;;;;;5.15;3.08;;;;;;;;;;4941870;29;20184;-93
2021/08/12 08:42:06;;;;;;;5.25;3.45;;;20.80;99.90;;;;;;4923437;29;20250;-91
2021/08/12 08:44:34;;;;;;;3.92;3.17;;;20.80;99.90;;;;;;4916466;29;20195;-91
2021/08/12 08:47:00;;;;;;;6.10;3.20;;;;;;;;;;4958126;29;20180;-89
2021/08/12 08:49:28;;;;;;;4.18;3.03;;;20.80;99.90;;;;;;4948023;29;20203;-91
2021/08/12 08:51:54;;;;;;;6.90;3.30;;;20.80;99.90;;;;;;4940678;29;20184;-92
2021/08/12 08:54:21;;;;;;;3.90;3.30;;;;;;;;;;4939163;29;20184;-89
2021/08/12 08:56:47;;;;;;;6.80;4.60;;;;;;;;;;4935125;29;20176;-89
2021/08/12 08:59:13;;;;;;;5.82;4.00;;;20.90;99.90;;;;;;4919005;29;20274;-90
2021/08/12 09:01:40;;;;;;;6.50;4.43;;;20.90;99.90;;;;;;4907424;29;20920;-93
2021/08/12 09:04:06;;;;;;;5.95;4.43;;;;;;;;;;4938635;29;20199;-92
2021/08/12 09:06:32;;;;;;;5.93;4.22;;;21.00;99.90;;;;;;4902941;29;20669;-92
2021/08/12 09:08:58;;;;;;;7.53;4.40;;;21.00;99.90;;;;;;4918111;29;20279;-91
2021/08/12 09:11:25;;;;;;;6.32;4.70;;;21.00;99.90;;;;;;4917760;29;20188;-91
2021/08/12 09:13:51;;;;;;;11.20;5.35;;;;;;;;;;4886934;29;20204;-92
2021/08/12 09:16:35;;;;;;;6.43;5.00;;;21.20;99.90;;;;;;4917240;29;20657;-91
2021/08/12 09:19:22;;;;;;;7.05;4.85;;;21.50;99.90;;;;;;4935734;29;20179;-92
2021/08/12 09:21:54;;;;;;;6.07;4.38;;;21.50;99.90;;;;;;4937166;29;20231;-91
2021/08/12 09:24:20;;;;;;;6.72;4.55;;;21.50;99.90;;;;;;4936288;29;20180;-92
2021/08/12 09:26:47;;;;;;;5.35;4.43;;;;;;;;;;4936433;29;20195;-91
2021/08/12 09:29:31;;;;;;;5.80;3.95;;;21.60;99.90;;;;;;4919766;29;20238;-90
2021/08/12 09:32:04;;;;;;;5.78;3.80;;;21.60;99.90;;;;;;4922771;29;20274;-91
2021/08/12 09:34:44;;;;;;;5.47;3.78;;;21.80;99.90;;;;;;4920234;29;20238;-91
2021/08/12 09:37:11;;;;;;;10.75;3.28;;;21.90;99.90;;;;;;4921564;29;20196;-91
2021/08/12 09:39:38;;;;;;;3.95;2.80;;;22.10;99.90;;;;;;4909006;29;20254;-93
2021/08/12 09:42:05;;;;;;;4.13;2.78;;;22.20;99.90;;;;;;4954092;28;20196;-90
2021/08/12 09:44:52;;;;;;;3.08;2.30;;;22.10;99.90;;;;;;4963578;28;20179;-92
2021/08/12 09:47:24;;;;;;;5.63;3.60;;;22.20;99.90;;;;;;4946801;28;20209;-89
2021/08/12 09:49:56;;;;;;;4.03;2.80;;;22.30;99.90;;;;;;4947064;28;20195;-89
2021/08/12 09:52:33;;;;;;;8.02;3.40;;;22.20;99.90;;;;;;4947087;28;20164;-90
2021/08/12 09:55:12;;;;;;;4.13;2.75;;;22.30;99.90;;;;;;4944944;28;20200;-90
2021/08/12 09:57:44;;;;;;;10.35;3.30;;;22.30;99.90;;;;;;4927855;29;20171;-92
2021/08/12 10:00:31;;;;;;;6.78;3.60;;;22.30;99.90;;;;;;4945231;28;20231;-89
2021/08/12 10:02:57;;;;;;;5.70;3.83;;;;;;;;;;4946370;28;20207;-90
2021/08/12 10:05:23;;;;;;;5.57;4.50;;;22.30;99.90;;;;;;4949645;28;20184;-89
2021/08/12 10:07:51;;;;;;;5.57;4.18;;;22.30;99.90;;;;;;4930448;28;20187;-89
2021/08/12 10:10:22;;;;;;;6.68;3.88;;;22.20;99.90;;;;;;4962715;28;20176;-90
2021/08/12 10:12:53;;;;;;;6.90;3.67;;;22.60;99.90;;;;;;4933520;29;20212;-90
2021/08/12 10:15:25;;;;;;;4.15;3.00;;;22.60;99.90;;;;;;4949453;29;20177;-90
2021/08/12 10:17:52;;;;;;;8.75;3.20;;;22.60;98.10;;;;;;4926598;29;20161;-88
2021/08/12 10:20:30;;;;;;;9.63;3.05;;;22.60;98.60;;;;;;4910191;29;20254;-88
2021/08/12 10:22:57;;;;;;;5.57;3.10;;;22.60;99.30;;;;;;4929844;29;20214;-91
2021/08/12 10:25:24;;;;;;;4.65;2.95;;;22.70;98.70;;;;;;4899374;29;20220;-91
2021/08/12 10:28:00;;;;;;;4.60;2.83;;;22.70;98.90;;;;;;4903254;29;20168;-90
2021/08/12 10:30:30;;;;;;;4.75;2.85;;;22.70;97.90;;;;;;4903974;29;20290;-92
2021/08/12 10:32:58;;;;;;;5.45;3.40;;;22.60;96.80;;;;;;4904763;29;20195;-91
2021/08/12 10:35:26;;;;;;;5.72;3.72;;;22.70;97.90;;;;;;4903721;29;20185;-91
2021/08/12 10:37:54;;;;;;;4.03;2.60;;;;;;;;;;4920153;29;20410;-92
2021/08/12 10:40:25;;;;;;;4.97;2.75;;;23.00;97.10;;;;;;4919217;29;20177;-91
2021/08/12 10:42:51;;;;;;;7.50;2.80;;;;;;;;;;4910727;29;20208;-91
2021/08/12 10:45:22;;;;;;;6.53;3.00;;;22.90;96.20;;;;;;4904806;29;20279;-92
2021/08/12 10:47:55;;;;;;;3.92;2.90;;;23.30;98.90;;;;;;4905721;29;20229;-91
2021/08/12 10:50:26;;;;;;;4.40;2.47;;;23.00;96.90;;;;;;4923001;29;20188;-93
2021/08/12 10:53:04;;;;;;;3.58;2.72;;;23.40;98.80;;;;;;4911612;29;20196;-93
2021/08/12 10:55:31;;;;;;;5.82;2.88;;;23.40;96.40;;;;;;4915021;29;20180;-93
2021/08/12 10:58:18;;;;;;;3.78;2.88;;;23.30;96.70;;;;;;4931533;29;20547;-92
2021/08/12 11:00:52;;;;;;;5.70;2.97;;;23.30;95.80;;;;;;4911949;29;20235;-89
2021/08/12 11:03:43;;;;;;;4.85;3.40;;;23.40;96.00;;;;;;4906420;29;20583;-89
2021/08/12 11:06:09;;;;;;;3.97;3.10;;;;;;;;;;4923121;29;20232;-92
2021/08/12 11:11:36;;;;;;;4.60;2.92;;;23.40;94.70;;;;;;4926797;29;20254;-90
2021/08/12 11:14:02;;;;;;;7.55;4.28;;;;;;;;;;4909280;29;20185;-91
2021/08/12 11:16:51;;;;;;;5.43;3.55;;;23.30;95.20;;;;;;4926253;29;20176;-90
2021/08/12 11:19:25;;;;;;;6.25;3.95;;;23.40;95.70;;;;;;4925727;29;20191;-90
2021/08/12 11:21:51;;;;;;;4.55;3.33;;;;;;;;;;4903490;29;20175;-89
2021/08/12 11:24:17;;;;;;;5.72;4.00;;;;;;;;;;4911595;29;20211;-90
2021/08/12 11:26:46;;;;;;;4.53;4.03;;;23.10;95.80;;;;;;4910702;29;20195;-90
2021/08/12 11:29:34;;;;;;;9.82;5.68;;;24.00;96.50;;;;;;4910611;29;20227;-90
2021/08/12 11:32:14;;;;;;;7.57;4.40;;;23.30;96.10;;;;;;4913524;29;20188;-90
2021/08/12 11:34:42;;;;;;;6.18;4.32;;;23.40;95.80;;;;;;4924737;29;20215;-87
2021/08/12 11:37:13;;;;;;;8.60;4.45;;;23.50;96.20;;;;;;4923908;29;20184;-88
2021/08/12 11:40:00;;;;;;;7.03;4.88;;;23.60;96.20;;;;;;4927172;29;20237;-90
2021/08/12 11:42:37;;;;;;;5.82;4.53;;;23.50;96.10;;;;;;4905777;29;20209;-90
2021/08/12 11:45:06;;;;;;;6.15;4.30;;;23.50;96.20;;;;;;4918918;29;20288;-90
2021/08/12 11:47:32;;;;;;;6.10;3.75;;;23.70;97.50;;;;;;4909801;29;20275;-93
2021/08/12 11:49:59;;;;;;;6.75;3.38;;;23.90;94.90;;;;;;4906214;29;20264;-92
2021/08/12 11:52:31;;;;;;;6.47;3.70;;;23.80;95.20;;;;;;4926929;29;20215;-93
2021/08/12 11:55:09;;;;;;;7.68;5.47;;;23.70;94.50;;;;;;4908285;29;20200;-94
2021/08/12 11:57:51;;;;;;;7.05;3.53;;;23.90;94.70;;;;;;4898274;29;20195;-92
2021/08/12 12:00:19;;;;;;;6.80;3.38;;;23.70;96.30;;;;;;4909587;29;20187;-92
2021/08/12 12:02:56;;;;;;;4.55;3.30;;;23.60;96.60;;;;;;4912364;29;20212;-93
2021/08/12 12:05:24;;;;;;;8.57;3.10;;;24.00;95.10;;;;;;4924552;29;20207;-92
2021/08/12 12:07:56;;;;;;;6.90;3.70;;;24.00;95.40;;;;;;4919246;29;20236;-92
2021/08/12 12:10:26;;;;;;;6.28;3.83;;;24.00;94.80;;;;;;4901869;29;20272;-93
2021/08/12 12:12:52;;;;;;;7.68;4.70;;;;;;;;;;4918773;29;20279;-94
2021/08/12 12:15:35;;;;;;;8.55;3.55;;;24.20;94.40;;;;;;4902095;29;20181;-92
2021/08/12 12:18:01;;;;;;;4.32;3.17;;;24.40;94.60;;;;;;4898754;29;20196;-94
2021/08/12 12:20:27;;;;;;;3.83;2.58;;;24.50;94.90;;;;;;4927339;29;20204;-94
2021/08/12 12:23:04;;;;;;;7.32;3.85;;;24.40;94.20;;;;;;4908732;29;20208;-94
2021/08/12 12:25:32;;;;;;;6.20;3.67;;;24.40;94.00;;;;;;4938784;29;20203;-92
2021/08/12 12:27:58;;;;;;;4.60;3.90;;;24.30;94.10;;;;;;4936025;29;20176;-92
2021/08/12 12:30:26;;;;;;;9.48;4.40;;;24.40;94.30;;;;;;4903927;29;20231;-92
2021/08/12 12:33:13;;;;;;;8.75;4.65;;;24.40;94.60;;;;;;4920852;29;20659;-92
2021/08/12 12:35:43;;;;;;;6.32;3.90;;;24.30;94.20;;;;;;4909446;29;20198;-93
2021/08/12 12:38:11;;;;;;;4.70;4.30;;;24.30;94.50;;;;;;4943732;29;20171;-92
2021/08/12 12:40:39;;;;;;;6.10;4.47;;;23.80;94.30;;;;;;4924149;29;20246;-94
2021/08/12 12:43:06;;;;;;;7.30;3.70;;;23.80;94.70;;;;;;4922352;29;20216;-92
2021/08/12 12:45:47;;;;;;;5.03;3.08;;;23.80;95.00;;;;;;4920808;29;20199;-93
2021/08/12 12:48:13;;;;;;;4.70;3.40;;;;;;;;;;4921036;29;20259;-93
2021/08/12 12:50:52;;;;;;;9.00;4.15;;;24.00;95.40;;;;;;4905839;29;20195;-93
2021/08/12 12:53:40;;;;;;;6.35;3.08;;;24.10;94.00;;;;;;4938145;29;20244;-92
2021/08/12 12:56:23;;;;;;;3.70;3.03;;;24.20;94.10;;;;;;4937081;29;20184;-92
2021/08/12 12:58:49;;;;;;;6.45;3.88;;;;;;;;;;4929721;29;20175;-89
2021/08/12 13:01:23;;;;;;;6.28;3.65;;;24.20;93.70;;;;;;4910465;29;20753;-91
2021/08/12 13:04:00;;;;;;;5.95;4.32;;;24.30;93.80;;;;;;4899235;29;20736;-91
2021/08/12 13:06:36;;;;;;;5.15;3.58;;;24.20;93.60;;;;;;4921825;29;20187;-92
2021/08/12 13:09:03;;;;;;;8.25;3.83;;;24.40;93.60;;;;;;4922183;29;20179;-93